Time;durP1;ratioP1;P1;durP2;ratioP2;P2;SDS_P1;SDS_P2;PMS_P1;PMS_P2;Temp;Humidity;BMP_temperature;BMP_pressure;BME280_temperature;BME280_humidity;BME280_pressure;Samples;Min_cycle;Max_cycle;Signal;HPM_P1;HPM_P2
2022/06/02 00:01:33;;;;;;;13.45;5.63;;;;;;;23.11;100.00;100137.66;4990539;28;20221;-72
2022/06/02 00:04:09;;;;;;;13.23;5.53;;;;;;;23.07;100.00;100143.97;4990635;28;20215;-72
2022/06/02 00:06:45;;;;;;;7.68;5.65;;;;;;;22.86;100.00;100128.84;4990147;28;20200;-72
2022/06/02 00:09:27;;;;;;;8.73;5.38;;;;;;;22.84;100.00;100149.16;4991366;28;20296;-72
2022/06/02 00:12:05;;;;;;;16.23;10.07;;;;;;;22.76;100.00;100148.53;4994773;28;20681;-72
2022/06/02 00:14:41;;;;;;;8.68;6.35;;;;;;;22.74;100.00;100155.69;4989945;28;20701;-72
2022/06/02 00:17:27;;;;;;;8.40;5.38;;;;;;;22.70;100.00;100132.91;4975453;28;20303;-72
2022/06/02 00:20:01;;;;;;;9.27;6.07;;;;;;;22.73;100.00;100133.66;5069800;28;20202;-72
2022/06/02 00:22:35;;;;;;;7.25;5.68;;;;;;;22.78;100.00;100130.88;5091672;28;20222;-72
2022/06/02 00:25:05;;;;;;;8.32;7.07;;;;;;;22.74;100.00;100134.53;5090438;28;20209;-72
2022/06/02 00:27:46;;;;;;;7.05;6.35;;;;;;;22.69;100.00;100124.09;5078221;28;20628;-72
2022/06/02 00:30:20;;;;;;;20.25;11.57;;;;;;;22.51;100.00;100110.63;5072966;28;20205;-72
2022/06/02 00:33:21;;;;;;;10.75;5.43;;;;;;;22.67;100.00;100122.44;5071791;28;20221;-72
2022/06/02 00:35:53;;;;;;;6.35;5.30;;;;;;;22.61;100.00;100119.97;5081462;28;20666;-72
2022/06/02 00:38:25;;;;;;;9.65;5.90;;;;;;;22.63;100.00;100110.19;5021823;28;20196;-72
2022/06/02 00:40:53;;;;;;;8.52;5.75;;;;;;;22.54;100.00;100105.25;5072417;28;20255;-72
2022/06/02 00:43:52;;;;;;;14.63;8.63;;;;;;;22.61;100.00;100127.91;5075973;28;20222;-72
2022/06/02 00:46:24;;;;;;;9.57;5.60;;;;;;;22.59;100.00;100119.16;5076638;28;20593;-72
2022/06/02 00:49:10;;;;;;;8.60;5.35;;;;;;;22.67;100.00;100128.59;5087187;28;20205;-74
2022/06/02 00:51:50;;;;;;;8.98;5.32;;;;;;;22.58;100.00;100114.78;5078213;28;20213;-74
2022/06/02 00:57:34;;;;;;;19.58;12.00;;;;;;;22.31;100.00;100086.63;5079449;28;20697;-72
2022/06/02 01:00:13;;;;;;;7.18;5.53;;;;;;;22.55;100.00;100114.88;5071072;28;20205;-72
2022/06/02 01:02:48;;;;;;;7.40;5.88;;;;;;;22.45;100.00;100100.25;5057526;28;20219;-72
2022/06/02 01:05:27;;;;;;;8.20;5.53;;;;;;;22.38;100.00;100098.72;5080590;28;20197;-72
2022/06/02 01:08:04;;;;;;;6.68;5.95;;;;;;;22.52;100.00;100120.25;5090941;28;20284;-72
2022/06/02 01:10:54;;;;;;;10.00;6.80;;;;;;;22.44;100.00;100114.38;5074414;28;20267;-72
2022/06/02 01:13:48;;;;;;;12.70;8.60;;;;;;;22.41;100.00;100106.53;4999994;28;20209;-72
2022/06/02 01:16:19;;;;;;;10.93;7.13;;;;;;;22.40;100.00;100097.75;5008582;28;20197;-72
2022/06/02 01:19:00;;;;;;;15.02;7.50;;;;;;;22.46;100.00;100100.19;4994629;28;20204;-72
2022/06/02 01:21:57;;;;;;;10.63;7.28;;;;;;;22.37;100.00;100108.41;5008167;28;20378;-72
2022/06/02 01:24:54;;;;;;;11.48;7.82;;;;;;;22.35;100.00;100099.69;4976314;28;20200;-72
2022/06/02 01:27:55;;;;;;;11.40;8.80;;;;;;;22.37;100.00;100102.25;5007854;28;20197;-72
2022/06/02 01:30:47;;;;;;;13.50;9.45;;;;;;;22.33;100.00;100096.22;5006816;28;20208;-72
2022/06/02 01:33:23;;;;;;;16.48;9.23;;;;;;;22.28;100.00;100092.00;4977334;28;20711;-72
2022/06/02 01:35:59;;;;;;;12.93;7.65;;;;;;;22.34;100.00;100097.94;4991329;28;20248;-72
2022/06/02 01:38:34;;;;;;;12.18;7.60;;;;;;;22.38;100.00;100109.28;4998703;28;20696;-72
2022/06/02 01:41:15;;;;;;;11.32;7.75;;;;;;;22.20;100.00;100079.91;5000455;28;20923;-72
2022/06/02 01:43:57;;;;;;;10.43;7.88;;;;;;;22.38;100.00;100106.63;5004790;28;20196;-72
2022/06/02 01:46:37;;;;;;;8.20;6.65;;;;;;;22.38;100.00;100107.50;4978656;28;20371;-72
2022/06/02 01:49:18;;;;;;;11.52;6.15;;;;;;;22.41;100.00;100101.25;4988585;28;20209;-73
2022/06/02 01:51:55;;;;;;;8.98;6.43;;;;;;;22.32;100.00;100088.34;5075041;28;20193;-72
2022/06/02 01:54:32;;;;;;;8.30;6.20;;;;;;;22.38;100.00;100098.72;5090479;28;20198;-72
2022/06/02 01:57:10;;;;;;;7.43;6.65;;;;;;;22.30;100.00;100080.47;5080063;28;20198;-73
2022/06/02 01:59:55;;;;;;;24.83;14.77;;;;;;;22.54;100.00;100108.75;5070345;28;20666;-72
2022/06/02 02:02:31;;;;;;;11.98;8.02;;;;;;;22.54;100.00;100102.59;5034212;28;20599;-72
2022/06/02 02:05:16;;;;;;;16.85;7.85;;;;;;;22.56;100.00;100103.38;5070513;28;20584;-73
2022/06/02 02:07:59;;;;;;;12.15;7.10;;;;;;;22.48;100.00;100094.84;5081534;28;21041;-72
2022/06/02 02:10:34;;;;;;;11.63;8.38;;;;;;;22.45;100.00;100085.25;5089081;28;20205;-72
2022/06/02 02:13:11;;;;;;;13.98;8.27;;;;;;;22.39;100.00;100090.75;5076968;28;20674;-73
2022/06/02 02:15:49;;;;;;;12.15;6.75;;;;;;;22.44;100.00;100109.09;5077455;28;20206;-75
2022/06/02 02:18:23;;;;;;;11.23;6.55;;;;;;;22.42;100.00;100105.63;5050848;28;20298;-73
2022/06/02 02:21:15;;;;;;;35.58;21.08;;;;;;;22.40;100.00;100110.13;5088517;28;20201;-73
2022/06/02 02:23:51;;;;;;;10.05;7.50;;;;;;;22.37;100.00;100110.19;5089909;28;20608;-73
2022/06/02 02:26:25;;;;;;;9.32;6.10;;;;;;;22.40;100.00;100113.59;5044595;28;20198;-73
2022/06/02 02:29:00;;;;;;;11.32;7.18;;;;;;;22.41;100.00;100109.19;5090222;28;20281;-73
2022/06/02 02:31:39;;;;;;;7.97;6.07;;;;;;;22.41;100.00;100111.81;5089794;28;20221;-73
2022/06/02 02:34:16;;;;;;;10.68;6.28;;;;;;;22.36;100.00;100116.41;5087843;28;20198;-73
2022/06/02 02:36:55;;;;;;;18.42;10.18;;;;;;;22.24;100.00;100123.81;5054316;28;20204;-73
2022/06/02 02:39:32;;;;;;;11.85;6.45;;;;;;;22.16;100.00;100117.91;5078847;28;20807;-73
2022/06/02 02:42:03;;;;;;;8.75;6.68;;;;;;;22.04;100.00;100130.63;5077747;28;20248;-73
2022/06/02 02:44:37;;;;;;;10.05;6.07;;;;;;;21.85;100.00;100126.78;5079790;28;20678;-73
2022/06/02 02:47:12;;;;;;;6.45;5.68;;;;;;;21.49;100.00;100132.25;5075619;28;20213;-73
2022/06/02 02:49:47;;;;;;;7.75;6.50;;;;;;;21.08;100.00;100122.78;5084268;28;20256;-73
2022/06/02 02:52:20;;;;;;;8.50;5.55;;;;;;;20.92;100.00;100112.72;5069629;28;20294;-73
2022/06/02 02:54:57;;;;;;;8.85;5.97;;;;;;;20.97;100.00;100111.72;5080602;28;20198;-73
2022/06/02 02:57:32;;;;;;;18.08;7.32;;;;;;;21.03;100.00;100122.06;5089653;28;20198;-73
2022/06/02 03:00:07;;;;;;;8.77;6.38;;;;;;;21.06;100.00;100116.72;5089593;28;20280;-73
2022/06/02 03:02:50;;;;;;;15.50;9.48;;;;;;;21.17;100.00;100130.50;5058143;28;20222;-75
2022/06/02 03:05:25;;;;;;;12.98;6.55;;;;;;;21.22;100.00;100115.41;5080899;28;20210;-73
2022/06/02 03:07:52;;;;;;;17.70;10.88;;;;;;;21.25;100.00;100133.81;5070819;28;20209;-73
2022/06/02 03:10:24;;;;;;;17.58;7.10;;;;;;;21.39;100.00;100132.53;5070560;28;20206;-73
2022/06/02 03:13:05;;;;;;;7.38;6.60;;;;;;;21.52;100.00;100131.28;5080524;28;20232;-73
2022/06/02 03:15:40;;;;;;;8.18;6.35;;;;;;;21.71;100.00;100145.69;5077041;28;20217;-73
2022/06/02 03:18:24;;;;;;;12.25;6.82;;;;;;;22.11;100.00;100158.59;5070296;28;20202;-74
2022/06/02 03:20:58;;;;;;;6.78;6.18;;;;;;;22.35;100.00;100130.53;5081279;28;20202;-73
2022/06/02 03:24:15;;;;;;;9.93;6.80;;;;;;;23.00;100.00;100157.44;5092919;28;20309;-73
2022/06/02 03:26:52;;;;;;;6.75;6.05;;;;;;;23.17;100.00;100161.22;5000346;28;20202;-73
2022/06/02 03:29:29;;;;;;;9.02;6.93;;;;;;;23.69;100.00;100170.81;4990638;28;20197;-73
2022/06/02 03:32:04;;;;;;;9.05;5.25;;;;;;;24.21;100.00;100178.59;4990354;28;20278;-73
2022/06/02 03:34:38;;;;;;;7.60;5.78;;;;;;;24.50;100.00;100149.16;4991164;28;20284;-73
2022/06/02 03:37:24;;;;;;;7.47;5.70;;;;;;;25.24;100.00;100190.25;4989863;28;20559;-73
2022/06/02 03:40:10;;;;;;;10.90;6.22;;;;;;;25.36;100.00;100185.28;4972193;28;20205;-73
2022/06/02 03:42:44;;;;;;;12.52;6.50;;;;;;;25.43;100.00;100201.81;4989758;28;20266;-73
2022/06/02 03:45:25;;;;;;;9.77;5.53;;;;;;;25.45;100.00;100198.16;4990527;28;20240;-74
2022/06/02 03:48:04;;;;;;;15.13;6.38;;;;;;;25.91;100.00;100209.38;5004573;28;20208;-73
2022/06/02 03:50:49;;;;;;;13.98;6.20;;;;;;;26.43;100.00;100210.50;5009242;28;20279;-73
2022/06/02 03:53:51;;;;;;;12.25;6.22;;;;;;;26.96;100.00;100214.09;5003096;28;20622;-73
2022/06/02 03:56:29;;;;;;;10.95;6.53;;;;;;;27.60;100.00;100210.81;4940380;29;20205;-73
2022/06/02 03:59:12;;;;;;;8.80;6.30;;;;;;;28.45;97.07;100222.16;4953490;29;20289;-73
2022/06/02 04:01:43;;;;;;;14.98;6.30;;;;;;;28.43;93.75;100210.72;5026488;28;20203;-73
2022/06/02 04:04:20;;;;;;;9.02;5.97;;;;;;;29.10;91.85;100220.19;5033697;28;20247;-73
2022/06/02 04:07:00;;;;;;;10.82;6.65;;;;;;;29.60;87.55;100230.56;5047848;28;20199;-74
2022/06/02 04:09:49;;;;;;;9.35;6.38;;;;;;;30.17;81.91;100226.09;5047435;28;20230;-73
2022/06/02 04:15:37;;;;;;;7.03;6.18;;;;;;;30.68;78.56;100217.41;4957086;28;20294;-73
2022/06/02 04:18:16;;;;;;;10.82;7.10;;;;;;;30.87;75.81;100225.94;4982093;28;20280;-72
2022/06/02 04:20:54;;;;;;;13.40;7.18;;;;;;;31.02;74.60;100229.44;4989788;28;20197;-72
2022/06/02 04:23:40;;;;;;;15.65;7.43;;;;;;;31.05;74.11;100215.84;4928186;28;20260;-72
2022/06/02 04:26:45;;;;;;;15.68;6.82;;;;;;;32.00;67.97;100236.97;4952472;28;20702;-72
2022/06/02 04:29:36;;;;;;;12.98;6.20;;;;;;;31.93;68.39;100242.75;4919799;29;20198;-72
2022/06/02 04:32:21;;;;;;;13.35;6.72;;;;;;;31.86;67.67;100241.47;4949218;28;20292;-72
2022/06/02 04:34:56;;;;;;;9.30;6.30;;;;;;;32.15;67.20;100235.91;4970463;28;20948;-72
2022/06/02 04:37:34;;;;;;;11.73;6.57;;;;;;;32.40;63.50;100209.84;4970325;28;20208;-72
2022/06/02 04:40:10;;;;;;;11.00;5.53;;;;;;;32.54;62.83;100235.69;4970702;28;20201;-72
2022/06/02 04:42:49;;;;;;;8.90;6.32;;;;;;;32.89;61.89;100239.34;4974563;28;20318;-72
2022/06/02 04:45:23;;;;;;;11.73;5.85;;;;;;;33.34;59.09;100248.47;4976291;28;20208;-72
2022/06/02 04:47:57;;;;;;;8.75;7.28;;;;;;;33.58;58.57;100243.03;4988379;28;20224;-72
2022/06/02 04:50:35;;;;;;;9.73;6.22;;;;;;;33.58;59.02;100239.47;4989494;28;20245;-72
2022/06/02 04:53:11;;;;;;;10.55;6.53;;;;;;;33.56;58.12;100218.09;5037653;28;20205;-72
2022/06/02 04:55:49;;;;;;;7.57;5.93;;;;;;;34.05;56.43;100249.22;5042501;28;20191;-73
2022/06/02 04:58:25;;;;;;;11.98;6.07;;;;;;;34.48;54.95;100247.53;5028734;28;21112;-73
2022/06/02 05:01:01;;;;;;;7.20;5.68;;;;;;;34.03;54.17;100217.06;5034535;28;20191;-73
2022/06/02 05:03:43;;;;;;;9.00;5.25;;;;;;;34.04;55.61;100250.19;5039249;28;20223;-74
2022/06/02 05:06:17;;;;;;;11.95;5.65;;;;;;;33.38;55.87;100198.88;5030323;28;20286;-71
2022/06/02 05:08:59;;;;;;;11.10;5.43;;;;;;;33.64;57.06;100231.81;5052679;28;20229;-69
2022/06/02 05:11:38;;;;;;;8.10;5.82;;;;;;;32.90;58.50;100224.06;5072046;28;20277;-70
2022/06/02 05:14:19;;;;;;;8.45;6.57;;;;;;;32.64;60.94;100242.13;5078617;28;20197;-72
2022/06/02 05:16:55;;;;;;;10.73;6.57;;;;;;;32.77;61.98;100245.63;5041717;28;20214;-72
2022/06/02 05:19:51;;;;;;;8.57;6.93;;;;;;;32.35;63.51;100248.75;5091239;28;20193;-74
2022/06/02 05:22:54;;;;;;;10.13;7.32;;;;;;;32.07;67.44;100244.50;5087486;28;20202;-73
2022/06/02 05:25:46;;;;;;;10.20;7.68;;;;;;;32.01;65.99;100230.63;5060573;28;20207;-72
2022/06/02 05:28:47;;;;;;;11.68;7.03;;;;;;;32.32;65.82;100246.31;5068761;28;20201;-75
2022/06/02 05:31:50;;;;;;;12.20;7.07;;;;;;;31.43;68.88;100242.72;5057561;28;20789;-75
2022/06/02 05:34:46;;;;;;;20.75;7.80;;;;;;;31.83;68.34;100241.69;5069179;28;20213;-74
2022/06/02 05:37:30;;;;;;;11.90;6.70;;;;;;;31.08;72.72;100245.09;5065701;28;20617;-74
2022/06/02 05:40:18;;;;;;;9.18;7.15;;;;;;;31.68;70.18;100236.56;5065758;28;20734;-74
2022/06/02 05:42:54;;;;;;;15.20;7.50;;;;;;;31.80;68.03;100252.66;5050113;28;20207;-74
2022/06/02 05:45:40;;;;;;;11.18;7.47;;;;;;;31.56;67.37;100248.13;5060570;28;20198;-74
2022/06/02 05:48:24;;;;;;;10.45;7.60;;;;;;;31.96;65.80;100252.44;5069565;28;20208;-74
2022/06/02 05:50:58;;;;;;;22.00;8.15;;;;;;;30.95;71.78;100252.22;5069535;28;20737;-74
2022/06/02 05:53:44;;;;;;;16.70;7.32;;;;;;;31.20;70.48;100255.00;5069482;28;20205;-74
2022/06/02 05:56:23;;;;;;;12.48;6.93;;;;;;;31.17;73.95;100257.03;5069696;28;20581;-74
2022/06/02 05:59:20;;;;;;;11.93;8.50;;;;;;;30.52;75.90;100261.34;5055297;28;20640;-74
2022/06/02 06:02:08;;;;;;;14.70;8.38;;;;;;;30.26;79.36;100257.59;5027128;28;20996;-74
2022/06/02 06:05:02;;;;;;;12.57;7.50;;;;;;;30.19;81.13;100257.13;4977981;28;20707;-74
2022/06/02 06:07:46;;;;;;;16.70;9.23;;;;;;;30.21;80.58;100249.03;5027229;28;20219;-74
2022/06/02 06:10:21;;;;;;;10.05;8.30;;;;;;;30.25;80.39;100255.91;5027092;28;20215;-74
2022/06/02 06:13:04;;;;;;;13.00;8.10;;;;;;;30.80;77.71;100248.72;5011014;28;20219;-74
2022/06/02 06:15:47;;;;;;;10.75;8.27;;;;;;;30.77;76.63;100256.97;5027038;28;20202;-74
2022/06/02 06:18:31;;;;;;;15.25;8.77;;;;;;;30.63;79.60;100240.09;5027189;28;20195;-73
2022/06/02 06:21:13;;;;;;;17.75;8.85;;;;;;;30.48;79.41;100255.31;5027087;28;20204;-74
2022/06/02 06:24:05;;;;;;;22.15;8.60;;;;;;;30.40;83.36;100250.41;5026651;28;20238;-74
2022/06/02 06:26:39;;;;;;;14.23;8.57;;;;;;;30.22;83.72;100250.72;5026997;28;20203;-74
2022/06/02 06:29:32;;;;;;;11.48;7.75;;;;;;;30.30;84.47;100253.78;4977697;28;20703;-73
2022/06/02 06:32:11;;;;;;;16.30;8.98;;;;;;;30.04;87.42;100252.75;4956603;28;20302;-73
2022/06/02 06:34:46;;;;;;;13.50;7.50;;;;;;;29.84;90.35;100254.00;4967902;28;20208;-73
2022/06/02 06:37:47;;;;;;;10.80;7.38;;;;;;;29.25;93.97;100197.91;4968207;28;20217;-73
2022/06/02 06:40:29;;;;;;;13.43;7.93;;;;;;;29.45;95.35;100251.03;4997004;28;20228;-73
2022/06/02 06:43:10;;;;;;;13.63;8.60;;;;;;;28.42;100.00;100255.22;5006758;28;20208;-73
2022/06/02 06:45:52;;;;;;;9.63;8.25;;;;;;;28.17;100.00;100245.97;5007017;28;20201;-73
2022/06/02 06:48:24;;;;;;;16.55;8.57;;;;;;;27.82;100.00;100195.41;5006751;28;20213;-73
2022/06/02 06:50:57;;;;;;;19.95;9.07;;;;;;;28.19;100.00;100244.94;5007060;28;21096;-73
2022/06/02 06:53:40;;;;;;;22.65;8.38;;;;;;;28.01;100.00;100233.44;4995143;28;20970;-73
2022/06/02 06:56:14;;;;;;;13.68;7.97;;;;;;;28.16;100.00;100246.91;4980212;28;20203;-73
2022/06/02 06:58:57;;;;;;;13.85;7.75;;;;;;;27.98;100.00;100249.59;5010938;28;20650;-73
2022/06/02 07:01:29;;;;;;;18.15;8.13;;;;;;;28.03;100.00;100242.22;5010781;28;20224;-73
2022/06/02 07:04:08;;;;;;;15.25;7.97;;;;;;;28.12;100.00;100240.00;5010618;28;20232;-73
2022/06/02 07:06:45;;;;;;;8.82;7.00;;;;;;;28.21;100.00;100244.84;5010609;28;20211;-73
2022/06/02 07:09:22;;;;;;;10.40;6.70;;;;;;;28.27;100.00;100252.50;5042978;28;20309;-73
2022/06/02 07:14:47;;;;;;;13.20;7.18;;;;;;;28.08;100.00;100241.97;5072513;28;20210;-73
2022/06/02 07:17:21;;;;;;;13.85;7.57;;;;;;;28.14;100.00;100256.81;5072462;28;20697;-73
2022/06/02 07:19:57;;;;;;;10.45;6.63;;;;;;;28.37;100.00;100251.06;5072563;28;20207;-73
2022/06/02 07:22:30;;;;;;;9.18;6.63;;;;;;;28.33;100.00;100236.16;5065590;28;20199;-73
2022/06/02 07:25:08;;;;;;;9.07;6.40;;;;;;;28.44;100.00;100250.63;5066324;28;20229;-73
2022/06/02 07:27:41;;;;;;;8.80;6.05;;;;;;;28.64;99.74;100251.34;5059625;28;20203;-73
2022/06/02 07:30:25;;;;;;;10.73;6.50;;;;;;;28.42;100.00;100249.00;5072105;28;20211;-73
2022/06/02 07:33:21;;;;;;;16.15;6.30;;;;;;;28.32;100.00;100261.13;5072117;28;20310;-73
2022/06/02 07:36:19;;;;;;;9.05;5.90;;;;;;;27.99;100.00;100254.00;5036677;28;20639;-73
2022/06/02 07:39:08;;;;;;;11.65;6.25;;;;;;;28.20;100.00;100259.13;5072356;28;20237;-73
2022/06/02 07:42:03;;;;;;;17.30;5.72;;;;;;;28.40;95.20;100257.06;5016565;28;20623;-73
2022/06/02 07:44:56;;;;;;;9.50;4.97;;;;;;;28.38;94.23;100263.47;5029426;28;20224;-73
2022/06/02 07:47:43;;;;;;;12.15;5.63;;;;;;;28.69;92.50;100260.81;5029521;28;20593;-74
2022/06/02 07:50:15;;;;;;;7.45;5.53;;;;;;;28.51;93.91;100237.81;5017262;28;20207;-73
2022/06/02 07:52:53;;;;;;;12.00;5.20;;;;;;;28.47;92.22;100242.44;5029237;28;20671;-73
2022/06/02 07:55:27;;;;;;;10.52;4.93;;;;;;;28.56;89.90;100265.97;5029491;28;20207;-73
2022/06/02 07:58:21;;;;;;;8.52;5.47;;;;;;;28.62;91.14;100262.06;5029452;28;20239;-73
2022/06/02 08:00:58;;;;;;;9.10;4.95;;;;;;;28.72;89.31;100268.66;5029602;28;20204;-74
2022/06/02 08:03:40;;;;;;;9.82;4.57;;;;;;;28.87;87.69;100262.44;5028904;28;20200;-74
2022/06/02 08:06:15;;;;;;;8.57;5.03;;;;;;;29.02;86.72;100272.25;5029348;28;20204;-74
2022/06/02 08:08:52;;;;;;;14.40;5.13;;;;;;;29.28;85.16;100273.44;5015624;28;20234;-73
2022/06/02 08:11:29;;;;;;;7.18;4.45;;;;;;;29.02;84.47;100250.88;5029097;28;20207;-73
2022/06/02 08:14:09;;;;;;;7.97;4.60;;;;;;;29.28;82.77;100277.91;5029195;28;20208;-73
2022/06/02 08:16:47;;;;;;;6.70;4.70;;;;;;;29.31;80.76;100261.69;5028809;28;20207;-73
2022/06/02 08:19:18;;;;;;;9.13;4.63;;;;;;;29.26;81.95;100272.66;5049606;28;20210;-73
2022/06/02 08:21:48;;;;;;;5.57;4.40;;;;;;;29.23;78.52;100279.94;5066732;28;20320;-73
2022/06/02 08:24:39;;;;;;;5.50;4.63;;;;;;;29.15;79.32;100276.84;5063121;28;20280;-73
2022/06/02 08:27:42;;;;;;;7.88;4.53;;;;;;;29.46;77.30;100276.81;5068638;28;20588;-73
2022/06/02 08:30:17;;;;;;;8.57;4.93;;;;;;;29.60;76.44;100271.50;4988862;28;20193;-73
2022/06/02 08:32:59;;;;;;;9.88;5.60;;;;;;;29.52;77.45;100274.63;4987491;28;20209;-73
2022/06/02 08:35:29;;;;;;;9.38;5.35;;;;;;;29.52;77.35;100276.44;4972963;28;20201;-73
2022/06/02 08:38:12;;;;;;;9.55;6.00;;;;;;;29.69;75.58;100278.97;4975683;28;20309;-72
2022/06/02 08:41:31;;;;;;;12.75;6.38;;;;;;;29.43;73.58;100271.66;4989168;28;20685;-74
2022/06/02 08:44:33;;;;;;;8.18;4.93;;;;;;;29.25;73.41;100276.22;4969754;28;20292;-73
2022/06/02 08:47:26;;;;;;;11.40;5.65;;;;;;;29.46;71.42;100279.50;4889783;29;20218;-73
2022/06/02 08:50:12;;;;;;;11.55;4.72;;;;;;;29.39;69.32;100265.66;4931109;29;20207;-71
2022/06/02 08:53:15;;;;;;;8.32;3.67;;;;;;;29.58;68.00;100277.88;4880762;29;20654;-72
2022/06/02 08:56:18;;;;;;;7.78;3.55;;;;;;;29.79;65.38;100274.75;4931233;29;20217;-72
2022/06/02 08:59:40;;;;;;;4.25;3.67;;;;;;;29.88;64.33;100273.38;4842911;29;20206;-71
2022/06/02 09:02:33;;;;;;;3.83;3.53;;;;;;;29.62;63.00;100271.41;4782930;30;20221;-72
2022/06/02 09:05:30;;;;;;;4.82;3.50;;;;;;;29.90;63.38;100274.13;4782974;30;20247;-71
2022/06/02 09:08:22;;;;;;;3.92;3.50;;;;;;;30.10;61.37;100275.59;4850772;29;20225;-72
2022/06/02 09:11:02;;;;;;;4.68;3.72;;;;;;;30.14;63.04;100275.31;4855883;29;20205;-72
2022/06/02 09:14:14;;;;;;;3.45;3.00;;;;;;;29.93;61.56;100272.13;4855413;29;20685;-71
2022/06/02 09:16:55;;;;;;;6.70;3.60;;;;;;;30.07;60.58;100273.97;4854947;29;20213;-71
2022/06/02 09:19:40;;;;;;;4.75;3.60;;;;;;;30.01;62.16;100256.47;4855619;29;20705;-71
2022/06/02 09:22:42;;;;;;;3.85;3.38;;;;;;;30.10;62.70;100278.28;4855684;29;20369;-71
2022/06/02 09:25:38;;;;;;;6.65;3.80;;;;;;;30.17;63.16;100271.59;4918331;29;20727;-71
2022/06/02 09:28:40;;;;;;;9.05;3.63;;;;;;;30.06;63.77;100272.25;4911727;29;20212;-71
2022/06/02 09:31:30;;;;;;;6.30;3.75;;;;;;;30.08;64.82;100280.16;4930316;29;20225;-71
2022/06/02 09:34:16;;;;;;;3.67;3.35;;;;;;;30.24;64.73;100286.28;4930325;29;20242;-72
2022/06/02 09:37:19;;;;;;;4.68;3.60;;;;;;;30.19;63.63;100275.00;4992427;28;20319;-72
2022/06/02 09:40:01;;;;;;;5.72;3.85;;;;;;;30.27;64.67;100259.34;5027268;28;20203;-70
2022/06/02 09:42:44;;;;;;;5.43;3.60;;;;;;;30.37;63.94;100273.84;5027270;28;20206;-71
2022/06/02 09:45:30;;;;;;;4.40;4.00;;;;;;;30.26;65.64;100262.97;5007558;28;20231;-71
2022/06/02 09:48:12;;;;;;;5.32;3.90;;;;;;;30.36;65.38;100280.16;5024646;28;20788;-72
2022/06/02 09:51:04;;;;;;;3.88;3.58;;;;;;;30.41;62.53;100272.69;5027506;28;20726;-72
2022/06/02 09:53:59;;;;;;;6.47;3.95;;;;;;;30.51;60.72;100276.53;4999176;28;20231;-71
2022/06/02 09:56:53;;;;;;;6.13;3.50;;;;;;;30.33;62.75;100257.13;5027390;28;20227;-73
2022/06/02 09:59:33;;;;;;;3.60;3.30;;;;;;;30.32;61.28;100251.88;4929954;29;20730;-73
2022/06/02 10:02:16;;;;;;;3.72;3.42;;;;;;;30.44;58.16;100277.88;4917295;29;20673;-73
2022/06/02 10:05:01;;;;;;;7.28;3.25;;;;;;;30.22;52.98;100248.06;4903727;29;20222;-71
2022/06/02 10:07:37;;;;;;;4.28;3.80;;;;;;;30.56;51.52;100277.09;4929891;29;20301;-71
2022/06/02 10:10:39;;;;;;;5.60;2.72;;;;;;;30.65;51.39;100284.53;4929955;29;20226;-71
2022/06/02 10:13:38;;;;;;;2.63;2.40;;;;;;;30.72;48.24;100277.81;4929803;29;20290;-72
2022/06/02 10:16:43;;;;;;;3.20;2.75;;;;;;;30.67;45.13;100277.28;4939696;28;20205;-71
2022/06/02 10:19:37;;;;;;;1.60;1.50;;;;;;;30.78;39.79;100282.81;4905893;29;20203;-71
2022/06/02 10:22:13;;;;;;;4.03;2.13;;;;;;;30.91;41.07;100273.00;4910934;29;20283;-70
2022/06/02 10:25:05;;;;;;;4.38;2.42;;;;;;;30.83;41.82;100275.31;4893775;29;20310;-70
2022/06/02 10:28:04;;;;;;;3.13;2.92;;;;;;;30.75;45.08;100268.75;4893520;29;20212;-70
2022/06/02 10:31:17;;;;;;;7.72;3.45;;;;;;;31.15;45.85;100266.97;4858811;29;20792;-71
2022/06/02 10:34:15;;;;;;;6.60;3.17;;;;;;;31.22;46.64;100249.53;4858690;29;20212;-70
2022/06/02 10:37:14;;;;;;;9.00;2.80;;;;;;;31.48;46.02;100256.66;4907416;29;20203;-71
2022/06/02 10:39:55;;;;;;;5.10;2.55;;;;;;;31.47;46.02;100249.56;4898531;29;20674;-71
2022/06/02 10:42:42;;;;;;;5.32;3.05;;;;;;;31.36;50.00;100233.38;4914717;29;20215;-70
2022/06/02 10:45:42;;;;;;;3.85;3.28;;;;;;;31.53;51.82;100248.34;4898658;29;20323;-72
2022/06/02 10:48:53;;;;;;;3.53;3.00;;;;;;;31.73;47.54;100251.34;4895547;29;20211;-71
2022/06/02 10:51:51;;;;;;;5.05;2.47;;;;;;;31.83;43.35;100247.06;4895646;29;20208;-71
2022/06/02 10:55:03;;;;;;;5.93;2.67;;;;;;;31.68;44.96;100236.56;4895448;29;20216;-71
2022/06/02 10:58:14;;;;;;;2.97;2.67;;;;;;;31.75;44.13;100237.84;4876563;29;20635;-69
2022/06/02 11:01:02;;;;;;;3.08;2.67;;;;;;;31.67;45.34;100224.97;4785031;29;20208;-71
2022/06/02 11:04:28;;;;;;;3.85;2.42;;;;;;;31.77;42.53;100236.78;4785163;30;20223;-71
2022/06/02 11:07:33;;;;;;;4.85;2.80;;;;;;;31.73;46.66;100235.28;4782586;29;20238;-71
2022/06/02 11:10:20;;;;;;;6.97;3.05;;;;;;;31.77;49.35;100234.09;4784703;30;20644;-71
2022/06/02 11:13:20;;;;;;;3.67;3.38;;;;;;;31.74;50.03;100223.59;4785071;30;20204;-71
2022/06/02 11:16:26;;;;;;;4.65;3.45;;;;;;;31.93;50.82;100218.63;4785538;29;20677;-71
2022/06/02 11:19:14;;;;;;;3.35;3.03;;;;;;;32.00;52.33;100231.63;4784817;30;20216;-72
2022/06/02 11:22:17;;;;;;;5.75;3.42;;;;;;;31.64;50.92;100227.00;4790682;29;20619;-71
2022/06/02 11:25:18;;;;;;;4.10;2.90;;;;;;;31.54;51.70;100221.41;4779823;30;20244;-71
2022/06/02 11:28:06;;;;;;;3.53;3.28;;;;;;;31.77;52.10;100206.41;4772347;29;20214;-70
2022/06/02 11:31:03;;;;;;;5.70;3.70;;;;;;;32.19;52.71;100205.19;4803524;29;20312;-71
2022/06/02 11:33:44;;;;;;;4.13;3.50;;;;;;;32.38;49.85;100216.31;4803114;29;20212;-71
2022/06/02 11:37:04;;;;;;;3.88;3.58;;;;;;;32.30;49.13;100213.31;4836810;29;20220;-71
2022/06/02 11:40:13;;;;;;;6.72;3.83;;;;;;;32.34;50.33;100222.88;4858474;29;20718;-73
2022/06/02 11:43:07;;;;;;;5.25;3.42;;;;;;;32.58;50.71;100210.31;4801201;29;20744;-71
2022/06/02 11:46:01;;;;;;;4.28;3.35;;;;;;;32.40;50.98;100215.22;4801325;29;20444;-71
2022/06/02 11:48:43;;;;;;;3.95;3.28;;;;;;;32.20;49.49;100214.97;4855928;29;20214;-71
2022/06/02 11:51:57;;;;;;;5.43;3.13;;;;;;;32.44;46.30;100210.50;4840304;29;20206;-71
2022/06/02 11:54:42;;;;;;;4.53;3.15;;;;;;;32.20;46.22;100205.09;4743322;30;20213;-71
2022/06/02 11:57:31;;;;;;;4.80;3.05;;;;;;;32.42;45.63;100207.06;4766076;30;20221;-72
2022/06/02 12:00:33;;;;;;;3.53;3.20;;;;;;;32.06;45.98;100199.00;4765902;30;20670;-71
2022/06/02 12:03:21;;;;;;;4.75;3.00;;;;;;;32.48;45.55;100178.91;4761457;30;20689;-71
2022/06/02 12:06:22;;;;;;;3.92;2.38;;;;;;;32.68;45.88;100192.59;4765081;30;20233;-72
2022/06/02 12:09:20;;;;;;;4.68;2.83;;;;;;;32.51;44.19;100136.56;4764625;30;20244;-71
2022/06/02 12:12:08;;;;;;;3.90;2.90;;;;;;;33.13;44.13;100190.13;4766494;30;20602;-72
2022/06/02 12:15:08;;;;;;;4.78;3.30;;;;;;;33.15;44.91;100180.97;4766249;30;20219;-71
2022/06/02 12:18:06;;;;;;;6.03;3.03;;;;;;;33.25;44.23;100175.72;4765846;30;20226;-71
2022/06/02 12:21:02;;;;;;;5.15;3.10;;;;;;;32.97;44.91;100160.84;4764363;30;20213;-71
2022/06/02 12:23:46;;;;;;;3.22;2.92;;;;;;;33.13;45.45;100171.31;4779887;30;20929;-72
2022/06/02 12:26:21;;;;;;;4.03;3.20;;;;;;;33.18;45.12;100166.41;4784257;30;20314;-71
2022/06/02 12:29:24;;;;;;;3.10;2.80;;;;;;;33.00;44.55;100165.13;4784129;30;20208;-71
2022/06/02 12:32:15;;;;;;;3.97;3.50;;;;;;;32.86;46.05;100172.41;4844354;29;20215;-71
2022/06/02 12:35:16;;;;;;;3.33;2.70;;;;;;;32.79;44.64;100141.59;4875498;29;20220;-70
2022/06/02 12:38:06;;;;;;;7.47;3.20;;;;;;;32.92;44.78;100157.66;4874898;29;20670;-71
2022/06/02 12:40:40;;;;;;;4.85;3.25;;;;;;;33.03;44.00;100154.16;4908179;29;20200;-72
2022/06/02 12:43:41;;;;;;;5.75;3.17;;;;;;;32.66;44.19;100164.13;4912770;29;20215;-72
2022/06/02 12:46:27;;;;;;;7.65;3.00;;;;;;;32.90;43.21;100148.84;4928719;29;20237;-72
2022/06/02 12:49:33;;;;;;;4.80;3.20;;;;;;;33.22;42.28;100147.25;4931516;29;20198;-71
2022/06/02 12:52:17;;;;;;;2.88;2.67;;;;;;;33.34;43.12;100126.63;4930296;29;20205;-71